createdAt,value
2022-10-11T00:03:02.410Z,101373.19
2022-10-11T00:06:17.826Z,101390.41
2022-10-11T00:09:33.952Z,101398.94
2022-10-11T00:12:49.641Z,101404.38
2022-10-11T00:16:12.057Z,101408.53
2022-10-11T00:19:26.932Z,101403.56
2022-10-11T00:22:43.222Z,101411.78
2022-10-11T00:26:04.959Z,101418.41
2022-10-11T00:29:22.990Z,101424.94
2022-10-11T00:32:40.102Z,101429.59
2022-10-11T00:35:54.808Z,101428.88
2022-10-11T00:39:14.413Z,101433.72
2022-10-11T00:42:29.828Z,101441.19
2022-10-11T00:46:07.117Z,101438.19
2022-10-11T00:49:35.376Z,101449.09
2022-10-11T00:52:56.491Z,101448.31
2022-10-11T00:56:20.402Z,101449.38
2022-10-11T00:59:46.816Z,101448.81
2022-10-11T01:03:03.270Z,101448.44
2022-10-11T01:06:18.655Z,101449.44
2022-10-11T01:09:36.876Z,101455.59
2022-10-11T01:13:05.991Z,101459.50
2022-10-11T01:16:29.347Z,101464.59
2022-10-11T01:20:07.257Z,101463.31
2022-10-11T01:24:18.744Z,101470.53
2022-10-11T01:27:58.449Z,101472.03
2022-10-11T01:31:23.853Z,101473.06
2022-10-11T01:35:17.896Z,101471.38
2022-10-11T01:38:40.330Z,101470.72
2022-10-11T01:46:35.555Z,101465.84
2022-10-11T01:50:02.992Z,101465.19
2022-10-11T01:53:32.132Z,101471.44
2022-10-11T01:57:20.259Z,101465.75
2022-10-11T02:00:50.514Z,101455.31
2022-10-11T02:04:18.769Z,101456.50
2022-10-11T02:07:40.729Z,101453.34
2022-10-11T02:11:07.313Z,101462.06
2022-10-11T02:14:26.796Z,101458.53
2022-10-11T02:17:50.367Z,101463.25
2022-10-11T02:21:09.661Z,101468.38
2022-10-11T02:24:32.193Z,101468.63
2022-10-11T02:27:49.548Z,101462.59
2022-10-11T02:31:08.026Z,101469.38
2022-10-11T02:34:27.529Z,101478.56
2022-10-11T02:37:53.211Z,101478.38
2022-10-11T02:41:16.157Z,101485.69
2022-10-11T02:44:43.465Z,101485.69
2022-10-11T02:48:00.694Z,101492.81
2022-10-11T02:51:23.030Z,101491.38
2022-10-11T02:54:44.637Z,101494.84
2022-10-11T02:58:03.570Z,101496.41
2022-10-11T03:01:19.586Z,101500.03
2022-10-11T03:04:34.576Z,101518.91
2022-10-11T03:07:49.477Z,101499.69
2022-10-11T03:11:04.665Z,101511.09
2022-10-11T03:14:19.719Z,101518.50
2022-10-11T03:17:36.849Z,101528.72
2022-10-11T03:20:52.783Z,101529.66
2022-10-11T03:24:08.472Z,101527.28
2022-10-11T03:27:24.436Z,101530.91
2022-10-11T03:30:39.728Z,101534.59
2022-10-11T03:33:54.623Z,101535.28
2022-10-11T03:37:09.378Z,101538.13
2022-10-11T03:40:30.594Z,101538.97
2022-10-11T03:43:45.860Z,101540.97
2022-10-11T03:47:00.803Z,101536.94
2022-10-11T03:50:16.031Z,101540.22
2022-10-11T03:53:36.997Z,101537.72
2022-10-11T03:56:55.232Z,101537.13
2022-10-11T04:00:11.881Z,101536.41
2022-10-11T04:03:27.267Z,101544.00
2022-10-11T04:06:42.040Z,101549.34
2022-10-11T04:09:57.093Z,101547.66
2022-10-11T04:13:13.015Z,101548.50
2022-10-11T04:16:35.209Z,101556.53
2022-10-11T04:19:50.175Z,101556.72
2022-10-11T04:23:05.687Z,101563.75
2022-10-11T04:26:21.749Z,101555.50
2022-10-11T04:29:39.790Z,101554.59
2022-10-11T04:32:54.892Z,101560.72
2022-10-11T04:36:10.199Z,101555.00
2022-10-11T04:39:27.333Z,101563.78
2022-10-11T04:42:43.207Z,101560.25
2022-10-11T04:45:58.481Z,101558.56
2022-10-11T04:49:13.188Z,101555.00
2022-10-11T04:52:28.241Z,101554.16
2022-10-11T04:55:43.182Z,101564.59
2022-10-11T04:58:58.371Z,101566.38
2022-10-11T05:02:16.184Z,101570.81
2022-10-11T05:05:31.398Z,101578.22
2022-10-11T05:08:46.410Z,101582.81
2022-10-11T05:12:03.433Z,101585.50
2022-10-11T05:15:18.371Z,101597.66
2022-10-11T05:18:33.223Z,101594.81
2022-10-11T05:21:54.968Z,101589.03
2022-10-11T05:25:12.124Z,101598.72
2022-10-11T05:28:28.186Z,101604.00
2022-10-11T05:31:44.332Z,101604.44
2022-10-11T05:35:02.505Z,101621.38
2022-10-11T05:38:17.733Z,101619.59
2022-10-11T05:41:32.579Z,101620.53
2022-10-11T05:44:47.637Z,101624.19
2022-10-11T05:48:12.411Z,101621.28
2022-10-11T05:51:27.682Z,101626.47
2022-10-11T05:54:43.739Z,101627.22
2022-10-11T05:57:58.825Z,101624.56
2022-10-11T06:01:20.609Z,101634.13
2022-10-11T06:04:38.512Z,101644.53
2022-10-11T06:07:53.317Z,101640.22
2022-10-11T06:11:14.203Z,101651.25
2022-10-11T06:14:43.826Z,101654.63
2022-10-11T06:18:31.442Z,101671.16
2022-10-11T06:22:03.965Z,101658.69
2022-10-11T06:25:43.858Z,101664.50
2022-10-11T06:29:31.317Z,101672.97
2022-10-11T06:33:06.875Z,101681.53
2022-10-11T06:36:36.092Z,101693.22
2022-10-11T06:40:10.557Z,101694.69
2022-10-11T06:43:39.836Z,101695.50
2022-10-11T06:47:21.127Z,101712.00
2022-10-11T06:51:00.257Z,101715.25
2022-10-11T06:54:30.462Z,101726.50
2022-10-11T06:58:06.606Z,101732.22
2022-10-11T07:01:49.986Z,101734.00
2022-10-11T07:05:19.761Z,101750.91
2022-10-11T07:08:57.273Z,101755.06
2022-10-11T07:12:32.242Z,101755.41
2022-10-11T07:16:17.637Z,101772.41
2022-10-11T07:19:53.936Z,101774.56
2022-10-11T07:23:35.820Z,101785.44
2022-10-11T07:27:05.520Z,101798.97
2022-10-11T07:30:51.585Z,101809.63
2022-10-11T07:34:23.848Z,101819.19
2022-10-11T07:38:12.440Z,101833.75
2022-10-11T07:41:46.083Z,101842.63
2022-10-11T07:45:19.451Z,101841.44
2022-10-11T07:48:54.363Z,101852.44
2022-10-11T07:52:26.873Z,101858.25
2022-10-11T07:56:03.233Z,101869.97
2022-10-11T07:59:38.473Z,101870.56
2022-10-11T08:03:11.446Z,101876.38
2022-10-11T08:06:52.676Z,101879.88
2022-10-11T08:10:38.868Z,101897.03
2022-10-11T08:14:14.559Z,101891.53
2022-10-11T08:17:54.040Z,101884.13
2022-10-11T08:21:33.172Z,101902.66
2022-10-11T08:25:14.369Z,101910.91
2022-10-11T08:28:59.264Z,101912.03
2022-10-11T08:32:40.315Z,101927.25
2022-10-11T08:36:13.425Z,101921.88
2022-10-11T08:39:46.942Z,101931.47
2022-10-11T08:43:49.182Z,101932.47
2022-10-11T08:47:25.604Z,101939.47
2022-10-11T08:51:07.024Z,101952.38
2022-10-11T08:54:47.860Z,101966.78
2022-10-11T08:58:23.607Z,101965.31
2022-10-11T09:02:01.607Z,101976.47
2022-10-11T09:05:20.758Z,101972.06
2022-10-11T09:09:00.042Z,101988.56
2022-10-11T09:12:30.895Z,101985.09
2022-10-11T09:16:13.398Z,101995.09
2022-10-11T09:19:57.942Z,102002.16
2022-10-11T09:23:28.830Z,101997.50
2022-10-11T09:26:53.924Z,101994.72
2022-10-11T09:30:16.213Z,102003.03
2022-10-11T09:33:35.453Z,102018.16
2022-10-11T09:37:04.682Z,102023.94
2022-10-11T09:40:37.162Z,102032.00
2022-10-11T09:43:40.787Z,102028.28
2022-10-11T09:46:44.557Z,102021.03
2022-10-11T09:49:53.150Z,102030.41
2022-10-11T09:52:59.758Z,102036.97
2022-10-11T09:56:06.311Z,102033.97
2022-10-11T09:59:27.175Z,102033.75
2022-10-11T10:02:31.337Z,102046.25
2022-10-11T10:05:38.524Z,102037.50
2022-10-11T10:08:43.053Z,102044.66
2022-10-11T10:11:48.430Z,102042.78
2022-10-11T10:15:10.338Z,102053.06
2022-10-11T10:18:24.848Z,102054.84
2022-10-11T10:21:31.623Z,102055.78
2022-10-11T10:24:40.520Z,102058.53
2022-10-11T10:27:59.383Z,102053.56
2022-10-11T10:31:02.374Z,102052.63
2022-10-11T10:34:15.424Z,102060.63
2022-10-11T10:37:26.988Z,102063.50
2022-10-11T10:40:39.106Z,102072.44
2022-10-11T10:43:49.213Z,102073.41
2022-10-11T10:47:03.647Z,102070.31
2022-10-11T10:50:13.972Z,102074.69
2022-10-11T10:53:28.798Z,102062.50
2022-10-11T10:56:38.228Z,102076.59
2022-10-11T11:00:05.386Z,102073.44
2022-10-11T11:03:20.532Z,102063.25
2022-10-11T11:06:36.441Z,102064.88
2022-10-11T11:09:55.197Z,102075.38
2022-10-11T11:13:14.480Z,102068.69
2022-10-11T11:16:26.487Z,102068.13
2022-10-11T11:19:44.530Z,102071.13
2022-10-11T11:22:56.656Z,102070.66
2022-10-11T11:26:08.990Z,102064.69
2022-10-11T11:29:24.853Z,102069.09
2022-10-11T11:32:45.597Z,102070.63
2022-10-11T11:35:52.962Z,102067.84
2022-10-11T11:39:01.569Z,102076.53
2022-10-11T11:42:10.818Z,102068.72
2022-10-11T11:45:20.734Z,102062.88
2022-10-11T11:48:27.089Z,102064.41
2022-10-11T11:51:35.430Z,102065.81
2022-10-11T11:54:49.727Z,102065.59
2022-10-11T11:58:07.124Z,102061.78
2022-10-11T12:01:26.496Z,102065.78
2022-10-11T12:04:42.316Z,102060.41
2022-10-11T12:07:57.053Z,102059.56
2022-10-11T12:11:04.329Z,102062.31
2022-10-11T12:14:27.615Z,102061.25
2022-10-11T12:17:30.728Z,102055.16
2022-10-11T12:20:40.659Z,102055.38
2022-10-11T12:23:47.811Z,102049.72
2022-10-11T12:26:55.822Z,102050.03
2022-10-11T12:29:58.770Z,102056.22
2022-10-11T12:33:13.349Z,102054.09
2022-10-11T12:36:41.337Z,102054.50
2022-10-11T12:39:52.593Z,102053.47
2022-10-11T12:43:24.597Z,102052.88
2022-10-11T12:46:53.546Z,102036.25
2022-10-11T12:50:11.427Z,102041.50
2022-10-11T12:53:32.517Z,102044.75
2022-10-11T12:56:49.367Z,102043.53
2022-10-11T12:59:54.379Z,102034.72
2022-10-11T13:02:59.022Z,102042.00
2022-10-11T13:06:13.238Z,102042.34
2022-10-11T13:09:25.990Z,102036.34
2022-10-11T13:12:37.581Z,102050.19
2022-10-11T13:15:44.546Z,102043.16
2022-10-11T13:18:50.428Z,102043.81
2022-10-11T13:21:57.051Z,102045.53
2022-10-11T13:25:05.241Z,102052.22
2022-10-11T13:28:10.593Z,102054.94
2022-10-11T13:31:13.605Z,102048.75
2022-10-11T13:34:22.384Z,102048.09
2022-10-11T13:37:29.258Z,102057.78
2022-10-11T13:40:33.962Z,102053.44
2022-10-11T13:43:40.573Z,102052.97
2022-10-11T13:46:43.789Z,102050.97
2022-10-11T13:49:53.423Z,102050.94
2022-10-11T13:52:59.625Z,102045.19
2022-10-11T13:56:07.316Z,102042.69
2022-10-11T13:59:19.485Z,102043.81
2022-10-11T14:02:24.316Z,102044.88
2022-10-11T14:05:32.943Z,102037.78
2022-10-11T14:08:40.717Z,102042.75
2022-10-11T14:11:46.293Z,102044.44
2022-10-11T14:14:49.956Z,102046.16
2022-10-11T14:17:53.106Z,102051.06
2022-10-11T14:20:56.145Z,102043.41
2022-10-11T14:24:01.817Z,102049.06
2022-10-11T14:27:08.213Z,102037.34
2022-10-11T14:30:25.631Z,102048.72
2022-10-11T14:33:30.067Z,102053.16
2022-10-11T14:36:33.133Z,102051.00
2022-10-11T14:39:36.828Z,102048.84
2022-10-11T14:42:41.219Z,102046.31
2022-10-11T14:45:44.467Z,102045.53
2022-10-11T14:48:55.427Z,102046.31
2022-10-11T14:52:00.326Z,102049.22
2022-10-11T14:55:03.310Z,102050.81
2022-10-11T14:58:10.114Z,102050.44
2022-10-11T15:01:16.656Z,102049.72
2022-10-11T15:04:20.426Z,102054.94
2022-10-11T15:07:28.858Z,102051.47
2022-10-11T15:10:36.170Z,102056.00
2022-10-11T15:13:40.568Z,102058.28
2022-10-11T15:16:43.800Z,102053.66
2022-10-11T15:19:47.346Z,102050.94
2022-10-11T15:22:51.718Z,102049.00
2022-10-11T15:25:54.826Z,102046.16
2022-10-11T15:28:59.424Z,102049.81
2022-10-11T15:32:02.334Z,102049.81
2022-10-11T15:35:06.183Z,102048.34
2022-10-11T15:38:18.091Z,102047.91
2022-10-11T15:41:21.697Z,102051.53
2022-10-11T15:44:26.098Z,102052.19
2022-10-11T15:47:29.134Z,102056.03
2022-10-11T15:50:35.080Z,102055.59
2022-10-11T15:53:38.487Z,102060.00
2022-10-11T15:56:41.810Z,102054.97
2022-10-11T15:59:46.067Z,102064.34
2022-10-11T16:02:49.047Z,102057.97
2022-10-11T16:05:53.832Z,102063.22
2022-10-11T16:08:57.000Z,102063.88
2022-10-11T16:12:00.281Z,102064.06
2022-10-11T16:15:05.702Z,102066.03
2022-10-11T16:18:11.577Z,102065.28
2022-10-11T16:21:16.065Z,102064.91
2022-10-11T16:24:19.068Z,102068.47
2022-10-11T16:27:22.077Z,102067.00
2022-10-11T16:30:26.454Z,102063.00
2022-10-11T16:33:31.723Z,102070.81
2022-10-11T16:36:40.381Z,102069.38
2022-10-11T16:39:44.191Z,102065.00
2022-10-11T16:42:48.887Z,102070.97
2022-10-11T16:45:59.194Z,102067.59
2022-10-11T16:49:02.394Z,102065.31
2022-10-11T16:52:05.661Z,102061.63
2022-10-11T16:55:09.956Z,102070.16
2022-10-11T16:58:12.908Z,102069.78
2022-10-11T17:01:17.280Z,102066.56
2022-10-11T17:04:20.673Z,102062.69
2022-10-11T17:07:24.909Z,102064.16
2022-10-11T17:10:39.377Z,102057.72
2022-10-11T17:13:43.145Z,102057.25
2022-10-11T17:16:47.426Z,102061.31
2022-10-11T17:19:50.613Z,102062.63
2022-10-11T17:22:53.953Z,102057.84
2022-10-11T17:25:56.967Z,102050.56
2022-10-11T17:29:02.166Z,102057.75
2022-10-11T17:32:07.001Z,102050.16
2022-10-11T17:35:10.173Z,102054.09
2022-10-11T17:38:13.113Z,102055.22
2022-10-11T17:41:16.197Z,102056.38
2022-10-11T17:44:19.643Z,102054.97
2022-10-11T17:47:23.933Z,102050.75
2022-10-11T17:50:27.313Z,102045.75
2022-10-11T17:53:30.290Z,102050.16
2022-10-11T17:56:37.866Z,102042.63
2022-10-11T17:59:41.387Z,102047.50
2022-10-11T18:02:45.719Z,102044.25
2022-10-11T18:05:48.939Z,102040.13
2022-10-11T18:08:55.494Z,102039.59
2022-10-11T18:11:58.509Z,102034.69
2022-10-11T18:15:01.549Z,102031.53
2022-10-11T18:18:07.892Z,102024.97
2022-10-11T18:21:11.846Z,102023.19
2022-10-11T18:24:17.124Z,102020.75
2022-10-11T18:27:20.338Z,102022.63
2022-10-11T18:30:23.885Z,102020.31
2022-10-11T18:33:28.228Z,102020.56
2022-10-11T18:36:33.391Z,102017.19
2022-10-11T18:39:36.730Z,102018.25
2022-10-11T18:42:39.797Z,102023.63
2022-10-11T18:45:45.779Z,102011.88
2022-10-11T18:48:53.805Z,102013.72
2022-10-11T18:51:56.765Z,102023.56
2022-10-11T18:55:03.011Z,102021.97
2022-10-11T18:58:06.332Z,102016.09
2022-10-11T19:01:12.626Z,102011.91
2022-10-11T19:04:17.035Z,102012.78
2022-10-11T19:07:20.829Z,102011.28
2022-10-11T19:10:23.811Z,102009.69
2022-10-11T19:13:26.940Z,102003.81
2022-10-11T19:16:31.197Z,101992.59
2022-10-11T19:19:35.684Z,101999.81
2022-10-11T19:22:38.687Z,101999.81
2022-10-11T19:25:41.659Z,101993.97
2022-10-11T19:28:46.169Z,101998.56
2022-10-11T19:31:52.208Z,101992.50
2022-10-11T19:34:57.285Z,101990.97
2022-10-11T19:38:00.255Z,101989.50
2022-10-11T19:41:04.692Z,101999.09
2022-10-11T19:44:10.478Z,101995.78
2022-10-11T19:47:13.546Z,101996.03
2022-10-11T19:50:18.306Z,102006.56
2022-10-11T19:53:21.430Z,101991.94
2022-10-11T19:56:25.227Z,101993.75
2022-10-11T19:59:28.383Z,101999.25
2022-10-11T20:02:31.490Z,101999.41
2022-10-11T20:05:38.539Z,101997.06
2022-10-11T20:08:41.682Z,101988.34
2022-10-11T20:11:44.590Z,101998.06
2022-10-11T20:14:47.571Z,101986.00
2022-10-11T20:17:51.651Z,101983.59
2022-10-11T20:20:58.407Z,101986.41
2022-10-11T20:24:04.217Z,101990.75
2022-10-11T20:27:07.785Z,101992.72
2022-10-11T20:30:13.920Z,101992.00
2022-10-11T20:33:16.821Z,101985.00
2022-10-11T20:36:22.906Z,101988.63
2022-10-11T20:39:25.976Z,101987.94
2022-10-11T20:42:29.994Z,101987.31
2022-10-11T20:45:32.991Z,101990.66
2022-10-11T20:48:38.815Z,101985.59
2022-10-11T20:51:43.735Z,101989.09
2022-10-11T20:54:46.665Z,101978.94
2022-10-11T20:57:49.664Z,101980.75
2022-10-11T21:00:52.863Z,101989.53
2022-10-11T21:03:58.171Z,101984.44
2022-10-11T21:07:02.383Z,101981.09
2022-10-11T21:10:05.961Z,101990.72
2022-10-11T21:13:09.165Z,101982.16
2022-10-11T21:16:15.210Z,101986.72
2022-10-11T21:19:18.410Z,101976.47
2022-10-11T21:22:22.679Z,101979.88
2022-10-11T21:25:25.598Z,101991.91
2022-10-11T21:28:28.521Z,101993.81
2022-10-11T21:31:34.386Z,101998.31
2022-10-11T21:34:37.570Z,101995.81
2022-10-11T21:37:44.219Z,101997.63
2022-10-11T21:40:47.322Z,102001.34
2022-10-11T21:43:50.548Z,101999.66
2022-10-11T21:47:08.699Z,101996.41
2022-10-11T21:50:11.979Z,101991.22
2022-10-11T21:53:16.534Z,101996.47
2022-10-11T21:56:19.940Z,101993.97
2022-10-11T21:59:22.957Z,101994.94
2022-10-11T22:02:26.009Z,101990.56
2022-10-11T22:05:28.919Z,101989.72
2022-10-11T22:08:34.090Z,101990.75
2022-10-11T22:11:37.542Z,101998.69
2022-10-11T22:14:40.560Z,101995.44
2022-10-11T22:17:43.499Z,101991.94
2022-10-11T22:20:46.507Z,101981.69
2022-10-11T22:23:53.927Z,101993.16
2022-10-11T22:26:56.930Z,101985.38
2022-10-11T22:30:01.862Z,101977.56
2022-10-11T22:33:05.170Z,101988.19
2022-10-11T22:36:12.748Z,101990.78
2022-10-11T22:39:16.994Z,101983.78
2022-10-11T22:42:23.085Z,101977.00
2022-10-11T22:45:28.313Z,101980.63
2022-10-11T22:48:31.312Z,101986.84
2022-10-11T22:51:34.237Z,101979.13
2022-10-11T22:54:38.659Z,101980.13
2022-10-11T22:57:41.587Z,101977.44
2022-10-11T23:00:44.886Z,101980.81
2022-10-11T23:03:50.612Z,101978.38
2022-10-11T23:06:53.651Z,101981.19
2022-10-11T23:09:57.917Z,101989.09
2022-10-11T23:13:00.878Z,101985.53
2022-10-11T23:16:08.059Z,101989.09
2022-10-11T23:19:11.099Z,101984.81
2022-10-11T23:22:14.152Z,101986.69
2022-10-11T23:25:18.713Z,101986.00
2022-10-11T23:28:22.202Z,101990.28
2022-10-11T23:31:25.356Z,101992.03
2022-10-11T23:34:28.330Z,101985.38
2022-10-11T23:37:31.266Z,101987.19
2022-10-11T23:40:35.527Z,101985.38
2022-10-11T23:43:38.600Z,101981.06
2022-10-11T23:46:41.625Z,101982.06
2022-10-11T23:49:44.553Z,101976.91
2022-10-11T23:52:47.477Z,101987.38
2022-10-11T23:55:52.280Z,101985.00
2022-10-11T23:58:57.037Z,101978.81
